หน้าหลัก
METAR-TAF:

METAR-TAF

ท่าอากาศยาน :

Deming, นิวเม็กซิโก, สหรัฐอเมริกา

ละติจูด: 32-15-44N, ลองจิจูด: 107-43-14W, ความสูง: 1315 ม.

การสังเกตสภาพอากาศปัจจุบัน

รายงานได้ทำขึ้นเมื่อ 19 นาทีที่แล้ว ณ เวลา 14:53 UTC
ลม 17 นอตจากตะวันตกโดยมีลมกระโชกได้ถึง23 นอต
อุณหภูมิ 27°C
ความชื้น 18%
ความกดอากาศ 1012 hPa
ทัศนวิสัย: 16.1 กม.
ท้องฟ้าแจ่มใส

METAR: KDMN 181453Z AUTO 26017G23KT 10SM CLR 27/01 A2989 RMK AO2 SLP031 T02720006 51015

เวลา: 09:12 (15:12 UTC)

การพยากรณ์

รายงานได้ทำขึ้นเมื่อ 3 ชั่วโมงและ 45 นาทีที่แล้ว ณ เวลา 11:27 UTC
การพยากรณ์มีผลตั้งแต่วันที่ 18 ณ เวลา 12 UTC จนถึงวันที่ 19 ณ เวลา 12 UTC
ลม 10 นอตจากตะวันตก
ทัศนวิสัย: 10 กม.
ท้องฟ้าแจ่มใส
จาก 18 ณ เวลา 1700 UTC
ลม 12 นอตจากตะวันตก/ตะวันตกเฉียงใต้โดยมีลมกระโชกได้ถึง20 นอต
ทัศนวิสัย: 10 กม.
ท้องฟ้าแจ่มใส
จาก 19 ณ เวลา 0100 UTC
ลม 6 นอตจากตะวันตก
ทัศนวิสัย: 10 กม.
ท้องฟ้าแจ่มใส

TAF: KDMN 181127Z 1812/1912 26010KT P6SM SKC FM181700 25012G20KT P6SM SKC FM190100 27006KT P6SM SKC

สังเกตการณ์สภาพอากาศและพยากรณ์อากาศของสนามบินมากกว่า 4000 แห่ง (รายงาน METAR และ TAF).

สถานีที่ดูได้จะแสดงไว้ด้วยจุดสีเหลืองและสีแดงบนแผนที่.

เลื่อนเมาส์ไปเหนือจุดเพื่อดูชื่อสถานี.

แล้วคลิกเพื่อดูสังเกตการณ์และการพยากรณ์สภาพอากาศ.

ในการเปลี่ยนแผนที่: คลิกที่ปุ่มสีเขียวที่มีกากบาทสีดำเพื่อซูมเข้า; ที่ปุ่มสีเขียวที่มีขีดเพื่อซูมออก; หรือที่ลูกศรสีเขียวเพื่อไปยังแผนที่ที่อยู่ติดกัน.


METAR-TAF: